createdAt,value
2017-12-25T00:00:07.983Z,39.00
2017-12-25T00:02:35.406Z,39.30
2017-12-25T00:05:02.827Z,39.10
2017-12-25T00:07:31.027Z,39.40
2017-12-25T00:09:58.510Z,39.30
2017-12-25T00:12:25.947Z,39.30
2017-12-25T00:14:53.372Z,39.30
2017-12-25T00:17:20.812Z,39.40
2017-12-25T00:19:48.231Z,39.70
2017-12-25T00:22:15.663Z,39.80
2017-12-25T00:24:43.083Z,39.40
2017-12-25T00:27:10.519Z,39.20
2017-12-25T00:29:38.058Z,39.30
2017-12-25T00:32:05.491Z,39.30
2017-12-25T00:34:32.914Z,39.40
2017-12-25T00:37:01.110Z,39.90
2017-12-25T00:39:28.531Z,39.20
2017-12-25T00:41:55.994Z,38.80
2017-12-25T00:44:23.419Z,39.00
2017-12-25T00:46:50.850Z,39.00
2017-12-25T00:49:18.274Z,38.90
2017-12-25T00:51:46.468Z,38.40
2017-12-25T00:54:13.899Z,38.30
2017-12-25T00:56:41.322Z,38.30
2017-12-25T00:59:08.764Z,38.50
2017-12-25T01:01:36.195Z,38.60
2017-12-25T01:04:03.619Z,38.30
2017-12-25T01:06:31.815Z,38.00
2017-12-25T01:08:59.294Z,37.90
2017-12-25T01:11:26.723Z,38.10
2017-12-25T01:13:54.155Z,38.50
2017-12-25T01:16:21.584Z,38.20
2017-12-25T01:18:49.024Z,38.40
2017-12-25T01:21:16.483Z,38.10
2017-12-25T01:23:43.947Z,38.50
2017-12-25T01:26:11.363Z,38.50
2017-12-25T01:28:38.827Z,38.60
2017-12-25T01:31:06.268Z,38.50
2017-12-25T01:33:33.694Z,38.60
2017-12-25T01:36:01.127Z,38.60
2017-12-25T01:38:28.542Z,38.50
2017-12-25T01:40:55.972Z,38.70
2017-12-25T01:43:23.678Z,38.90
2017-12-25T01:45:51.120Z,38.70
2017-12-25T01:48:18.535Z,38.90
2017-12-25T01:50:45.976Z,39.10
2017-12-25T01:53:13.405Z,38.70
2017-12-25T01:55:40.833Z,39.00
2017-12-25T01:58:28.903Z,39.40
2017-12-25T02:14:22.405Z,39.10
2017-12-25T02:16:49.827Z,39.30
2017-12-25T02:19:17.251Z,39.60
2017-12-25T02:21:44.846Z,39.00
2017-12-25T02:24:12.267Z,39.40
2017-12-25T02:26:39.691Z,39.40
2017-12-25T02:29:07.925Z,39.30
2017-12-25T02:31:35.351Z,39.30
2017-12-25T02:34:02.776Z,39.30
2017-12-25T02:36:30.199Z,39.10
2017-12-25T02:38:57.640Z,39.30
2017-12-25T02:41:25.063Z,39.40
2017-12-25T02:43:52.502Z,39.20
2017-12-25T02:46:20.687Z,38.70
2017-12-25T02:48:48.124Z,38.60
2017-12-25T02:51:15.551Z,39.00
2017-12-25T02:53:42.989Z,39.20
2017-12-25T02:56:10.403Z,39.50
2017-12-25T02:58:37.831Z,39.80
2017-12-25T03:01:05.252Z,39.50
2017-12-25T03:03:32.688Z,38.60
2017-12-25T03:06:00.107Z,38.50
2017-12-25T03:08:27.735Z,38.70
2017-12-25T03:10:55.157Z,38.10
2017-12-25T03:13:22.735Z,37.80
2017-12-25T03:15:50.156Z,37.80
2017-12-25T03:18:17.578Z,38.00
2017-12-25T03:20:45.020Z,37.90
2017-12-25T03:23:12.447Z,36.90
2017-12-25T03:25:39.880Z,37.20
2017-12-25T03:28:08.061Z,35.90
2017-12-25T03:30:35.501Z,35.90
2017-12-25T03:33:03.684Z,35.90
2017-12-25T03:35:31.259Z,35.90
2017-12-25T03:37:58.682Z,36.70
2017-12-25T03:40:26.883Z,36.40
2017-12-25T03:42:55.066Z,36.60
2017-12-25T03:45:22.503Z,36.60
2017-12-25T03:47:49.923Z,36.20
2017-12-25T03:50:17.359Z,36.40
2017-12-25T03:52:44.775Z,36.20
2017-12-25T03:55:12.203Z,36.70
2017-12-25T03:57:39.635Z,36.40
2017-12-25T04:00:07.080Z,36.70
2017-12-25T04:02:34.500Z,37.30
2017-12-25T04:05:01.936Z,37.70
2017-12-25T04:07:30.128Z,38.00
2017-12-25T04:09:57.552Z,38.00
2017-12-25T04:12:24.992Z,38.30
2017-12-25T04:14:52.408Z,37.80
2017-12-25T04:17:19.843Z,38.30
2017-12-25T04:19:47.263Z,38.50
2017-12-25T04:22:14.706Z,38.60
2017-12-25T04:24:42.120Z,38.60
2017-12-25T04:27:09.552Z,38.70
2017-12-25T04:29:36.975Z,38.70
2017-12-25T04:32:04.412Z,38.90
2017-12-25T04:34:31.832Z,39.00
2017-12-25T04:36:59.296Z,39.00
2017-12-25T04:39:26.720Z,38.90
2017-12-25T04:41:54.152Z,38.70
2017-12-25T04:44:21.591Z,38.00
2017-12-25T04:46:49.052Z,37.60
2017-12-25T04:49:16.484Z,38.20
2017-12-25T04:51:43.904Z,38.50
2017-12-25T04:54:12.105Z,38.10
2017-12-25T04:56:39.528Z,38.00
2017-12-25T04:59:06.959Z,38.20
2017-12-25T05:01:34.390Z,38.10
2017-12-25T05:04:01.819Z,38.10
2017-12-25T05:06:29.246Z,38.20
2017-12-25T05:08:56.675Z,38.40
2017-12-25T05:11:24.094Z,37.30
2017-12-25T05:13:51.521Z,37.10
2017-12-25T05:16:18.952Z,36.10
2017-12-25T05:18:46.379Z,36.80
2017-12-25T05:21:13.816Z,36.90
2017-12-25T05:23:41.231Z,37.00
2017-12-25T05:26:08.661Z,36.80
2017-12-25T05:28:36.084Z,37.30
2017-12-25T05:31:03.507Z,37.50
2017-12-25T05:33:30.928Z,37.60
2017-12-25T05:35:58.359Z,38.20
2017-12-25T05:38:25.784Z,38.50
2017-12-25T05:40:53.211Z,38.80
2017-12-25T05:43:20.628Z,38.80
2017-12-25T05:45:48.064Z,38.80
2017-12-25T05:48:15.479Z,38.80
2017-12-25T05:50:43.676Z,38.80
2017-12-25T05:53:10.658Z,38.80
2017-12-25T05:55:38.133Z,38.80
2017-12-25T05:58:05.581Z,38.80
2017-12-25T06:00:32.995Z,38.80
2017-12-25T06:03:01.191Z,38.80
2017-12-25T06:05:28.667Z,38.80
2017-12-25T06:07:56.103Z,39.10
2017-12-25T06:10:23.523Z,39.50
2017-12-25T06:12:50.957Z,39.50
2017-12-25T06:15:18.376Z,39.80
2017-12-25T06:17:45.802Z,40.20
2017-12-25T06:20:13.987Z,40.40
2017-12-25T06:22:41.476Z,40.40
2017-12-25T06:25:08.896Z,40.40
2017-12-25T06:27:36.323Z,40.40
2017-12-25T06:30:04.503Z,39.60
2017-12-25T06:32:31.935Z,39.60
2017-12-25T06:34:59.349Z,38.90
2017-12-25T06:37:26.827Z,39.10
2017-12-25T06:39:54.251Z,38.80
2017-12-25T06:42:21.667Z,38.60
2017-12-25T06:44:49.124Z,38.50
2017-12-25T06:47:16.549Z,38.60
2017-12-25T06:49:43.971Z,38.90
2017-12-25T06:52:12.178Z,38.50
2017-12-25T06:54:39.615Z,38.50
2017-12-25T06:57:07.028Z,38.80
2017-12-25T06:59:34.464Z,39.10
2017-12-25T07:02:01.879Z,39.80
2017-12-25T07:04:29.307Z,39.30
2017-12-25T07:06:57.495Z,39.20
2017-12-25T07:09:24.932Z,39.10
2017-12-25T07:11:52.352Z,38.90
2017-12-25T07:14:19.783Z,38.50
2017-12-25T07:16:47.203Z,38.50
2017-12-25T07:19:15.403Z,38.50
2017-12-25T07:21:42.827Z,38.50
2017-12-25T07:24:10.251Z,38.50
2017-12-25T07:26:37.666Z,38.70
2017-12-25T07:29:05.092Z,38.50
2017-12-25T07:31:32.527Z,38.70
2017-12-25T07:33:59.972Z,38.70
2017-12-25T07:36:27.404Z,38.90
2017-12-25T07:38:54.819Z,39.60
2017-12-25T07:41:22.264Z,41.10
2017-12-25T07:43:49.683Z,42.10
2017-12-25T07:46:17.112Z,43.00
2017-12-25T07:48:44.544Z,43.00
2017-12-25T07:51:11.976Z,43.00
2017-12-25T07:53:39.400Z,43.50
2017-12-25T07:56:06.828Z,43.20
2017-12-25T07:58:34.247Z,43.20
2017-12-25T08:01:01.684Z,43.60
2017-12-25T08:03:29.104Z,43.00
2017-12-25T08:05:56.535Z,43.10
2017-12-25T08:08:23.972Z,43.00
2017-12-25T08:10:51.396Z,43.00
2017-12-25T08:13:18.870Z,43.00
2017-12-25T08:15:46.260Z,43.00
2017-12-25T08:18:13.680Z,43.10
2017-12-25T08:20:41.138Z,43.00
2017-12-25T08:23:08.559Z,43.10
2017-12-25T08:25:35.983Z,43.10
2017-12-25T08:28:04.188Z,43.20
2017-12-25T08:30:31.607Z,43.10
2017-12-25T08:32:59.044Z,43.10
2017-12-25T08:35:26.464Z,43.10
2017-12-25T08:37:53.904Z,42.40
2017-12-25T08:40:21.306Z,42.10
2017-12-25T08:42:48.748Z,42.10
2017-12-25T08:45:16.207Z,42.30
2017-12-25T08:47:43.856Z,41.80
2017-12-25T08:50:11.282Z,41.40
2017-12-25T08:52:38.711Z,40.90
2017-12-25T08:55:06.151Z,41.30
2017-12-25T08:57:33.651Z,41.20
2017-12-25T09:00:01.084Z,40.70
2017-12-25T09:02:28.508Z,40.50
2017-12-25T09:04:55.938Z,40.50
2017-12-25T09:07:23.357Z,40.30
2017-12-25T09:09:51.577Z,40.20
2017-12-25T09:12:19.000Z,40.20
2017-12-25T09:14:46.427Z,40.00
2017-12-25T09:17:13.854Z,40.10
2017-12-25T09:19:41.280Z,39.60
2017-12-25T09:22:08.708Z,39.20
2017-12-25T09:24:36.903Z,38.00
2017-12-25T09:27:04.324Z,38.00
2017-12-25T09:29:31.756Z,38.10
2017-12-25T09:31:59.175Z,38.30
2017-12-25T09:34:26.750Z,37.90
2017-12-25T09:36:54.167Z,38.20
2017-12-25T09:39:22.351Z,38.30
2017-12-25T09:41:49.798Z,38.20
2017-12-25T09:44:17.215Z,38.30
2017-12-25T09:46:44.651Z,38.60
2017-12-25T09:49:12.068Z,38.60
2017-12-25T09:51:39.501Z,38.60
2017-12-25T09:54:06.922Z,38.60
2017-12-25T09:56:34.402Z,38.60
2017-12-25T09:59:01.773Z,38.50
2017-12-25T10:01:29.967Z,38.60
2017-12-25T10:03:57.388Z,39.10
2017-12-25T10:06:24.811Z,38.60
2017-12-25T10:08:52.236Z,38.50
2017-12-25T10:11:19.823Z,38.70
2017-12-25T10:13:47.251Z,38.60
2017-12-25T10:16:14.667Z,39.60
2017-12-25T10:18:42.100Z,40.00
2017-12-25T10:21:09.519Z,40.60
2017-12-25T10:23:36.948Z,40.70
2017-12-25T10:26:05.144Z,40.80
2017-12-25T10:28:32.572Z,40.70
2017-12-25T10:30:59.990Z,40.40
2017-12-25T10:33:27.416Z,40.40
2017-12-25T10:35:54.835Z,40.40
2017-12-25T10:38:22.271Z,40.50
2017-12-25T10:40:49.691Z,40.20
2017-12-25T10:43:17.132Z,40.70
2017-12-25T10:45:44.580Z,40.60
2017-12-25T10:48:12.044Z,40.80
2017-12-25T10:50:39.464Z,40.90
2017-12-25T10:53:07.073Z,40.70
2017-12-25T10:55:34.499Z,41.10
2017-12-25T10:58:02.691Z,41.60
2017-12-25T11:00:35.729Z,41.50
2017-12-25T11:03:03.146Z,41.50
2017-12-25T11:05:30.563Z,41.10
2017-12-25T11:07:58.080Z,41.10
2017-12-25T11:10:25.520Z,41.90
2017-12-25T11:12:52.943Z,42.50
2017-12-25T11:15:20.448Z,43.00
2017-12-25T11:17:47.871Z,43.00
2017-12-25T11:20:15.291Z,42.40
2017-12-25T11:22:42.728Z,42.40
2017-12-25T11:25:10.148Z,42.60
2017-12-25T11:27:37.593Z,43.00
2017-12-25T11:30:05.016Z,43.00
2017-12-25T11:32:32.444Z,42.90
2017-12-25T11:34:59.868Z,42.90
2017-12-25T11:37:27.308Z,42.90
2017-12-25T11:39:54.732Z,43.40
2017-12-25T11:42:22.164Z,43.70
2017-12-25T11:44:49.582Z,43.50
2017-12-25T11:47:17.028Z,42.90
2017-12-25T11:49:44.442Z,42.80
2017-12-25T11:52:11.872Z,42.90
2017-12-25T11:54:39.288Z,42.80
2017-12-25T11:57:07.479Z,42.80
2017-12-25T11:59:34.904Z,42.80
2017-12-25T12:02:02.344Z,42.60
2017-12-25T12:04:29.747Z,42.80
2017-12-25T12:06:57.216Z,42.80
2017-12-25T12:09:24.628Z,42.70
2017-12-25T12:11:52.115Z,42.70
2017-12-25T12:14:19.543Z,42.90
2017-12-25T12:16:46.964Z,43.30
2017-12-25T12:19:14.614Z,43.80
2017-12-25T12:21:42.040Z,43.90
2017-12-25T12:24:09.524Z,43.80
2017-12-25T12:26:36.946Z,44.10
2017-12-25T12:29:04.375Z,44.20
2017-12-25T12:31:31.795Z,43.60
2017-12-25T12:33:59.231Z,43.70
2017-12-25T12:36:26.650Z,44.20
2017-12-25T12:38:54.267Z,44.50
2017-12-25T12:41:21.691Z,45.10
2017-12-25T12:43:49.171Z,45.30
2017-12-25T12:46:16.604Z,44.80
2017-12-25T12:48:44.067Z,43.80
2017-12-25T12:51:11.492Z,44.10
2017-12-25T12:53:38.911Z,43.20
2017-12-25T12:56:06.340Z,43.60
2017-12-25T12:58:33.767Z,42.70
2017-12-25T13:01:01.970Z,42.80
2017-12-25T13:03:29.395Z,42.70
2017-12-25T13:05:56.819Z,42.80
2017-12-25T13:08:24.364Z,42.50
2017-12-25T13:10:51.795Z,42.80
2017-12-25T13:13:19.211Z,42.00
2017-12-25T13:15:46.643Z,42.10
2017-12-25T13:18:14.084Z,42.70
2017-12-25T13:20:41.544Z,43.80
2017-12-25T13:23:08.964Z,43.90
2017-12-25T13:25:36.400Z,44.40
2017-12-25T13:28:04.583Z,44.00
2017-12-25T13:30:32.015Z,44.00
2017-12-25T13:32:59.431Z,44.20
2017-12-25T13:35:26.860Z,43.70
2017-12-25T13:37:54.343Z,44.10
2017-12-25T13:40:21.767Z,43.30
2017-12-25T13:42:49.356Z,43.90
2017-12-25T13:45:16.775Z,44.00
2017-12-25T13:47:44.203Z,44.50
2017-12-25T13:50:11.624Z,44.40
2017-12-25T13:52:39.179Z,44.80
2017-12-25T13:55:06.612Z,44.00
2017-12-25T13:57:34.032Z,43.70
2017-12-25T14:00:01.453Z,43.50
2017-12-25T14:02:28.885Z,43.10
2017-12-25T14:04:56.295Z,43.30
2017-12-25T14:07:23.731Z,43.40
2017-12-25T14:09:51.143Z,43.20
2017-12-25T14:12:18.567Z,43.30
2017-12-25T14:14:45.984Z,43.50
2017-12-25T14:17:13.440Z,44.00
2017-12-25T14:19:40.872Z,43.90
2017-12-25T14:22:08.306Z,44.10
2017-12-25T14:24:35.731Z,44.10
2017-12-25T14:27:03.153Z,44.10
2017-12-25T14:29:30.583Z,43.60
2017-12-25T14:31:58.004Z,43.90
2017-12-25T14:34:25.527Z,44.10
2017-12-25T14:36:52.920Z,44.30
2017-12-25T14:39:20.357Z,44.00
2017-12-25T14:41:47.772Z,43.30
2017-12-25T14:44:15.200Z,42.90
2017-12-25T14:46:42.624Z,42.80
2017-12-25T14:49:10.058Z,43.30
2017-12-25T14:51:37.472Z,42.70
2017-12-25T14:54:04.951Z,42.60
2017-12-25T14:56:32.372Z,42.60
2017-12-25T14:58:59.797Z,42.60
2017-12-25T15:01:27.228Z,42.50
2017-12-25T15:03:54.643Z,42.50
2017-12-25T15:06:22.835Z,43.40
2017-12-25T15:08:50.270Z,43.30
2017-12-25T15:11:17.694Z,43.30
2017-12-25T15:13:45.107Z,43.50
2017-12-25T15:16:12.545Z,43.40
2017-12-25T15:18:40.727Z,43.50
2017-12-25T15:21:08.155Z,43.40
2017-12-25T15:23:35.572Z,43.40
2017-12-25T15:26:03.001Z,44.00
2017-12-25T15:28:30.423Z,44.20
2017-12-25T15:30:57.931Z,44.60
2017-12-25T15:33:25.356Z,45.00
2017-12-25T15:35:53.563Z,45.20
2017-12-25T15:38:20.976Z,45.10
2017-12-25T15:40:48.395Z,45.60
2017-12-25T15:43:15.823Z,45.90
2017-12-25T15:45:43.251Z,46.10
2017-12-25T15:48:11.453Z,46.30
2017-12-25T15:50:38.880Z,46.10
2017-12-25T15:53:06.308Z,46.40
2017-12-25T15:55:33.732Z,47.40
2017-12-25T15:58:01.168Z,46.70
2017-12-25T16:00:28.583Z,46.70
2017-12-25T16:02:56.050Z,46.70
2017-12-25T16:05:23.473Z,47.00
2017-12-25T16:07:50.900Z,46.90
2017-12-25T16:10:18.319Z,47.50
2017-12-25T16:12:45.751Z,47.50
2017-12-25T16:15:13.188Z,47.60
2017-12-25T16:17:41.415Z,47.80
2017-12-25T16:20:09.604Z,47.90
2017-12-25T16:22:37.031Z,47.90
2017-12-25T16:25:04.464Z,47.90
2017-12-25T16:27:31.878Z,48.00
2017-12-25T16:29:59.318Z,48.10
2017-12-25T16:32:27.518Z,48.60
2017-12-25T16:34:54.935Z,48.60
2017-12-25T16:37:22.359Z,48.80
2017-12-25T16:39:49.797Z,49.10
2017-12-25T16:42:17.211Z,49.30
2017-12-25T16:44:45.416Z,49.50
2017-12-25T16:47:12.830Z,49.40
2017-12-25T16:49:40.268Z,49.80
2017-12-25T16:52:07.692Z,49.80
2017-12-25T16:54:35.124Z,49.80
2017-12-25T16:57:02.548Z,49.80
2017-12-25T16:59:29.981Z,50.00
2017-12-25T17:01:57.530Z,50.30
2017-12-25T17:04:24.952Z,50.50
2017-12-25T17:06:52.380Z,50.60
2017-12-25T17:09:20.583Z,50.70
2017-12-25T17:11:48.003Z,50.60
2017-12-25T17:14:15.493Z,50.50
2017-12-25T17:16:42.883Z,50.70
2017-12-25T17:19:10.322Z,50.70
2017-12-25T17:21:37.735Z,50.70
2017-12-25T17:24:05.924Z,50.80
2017-12-25T17:26:33.357Z,50.70
2017-12-25T17:29:00.804Z,50.80
2017-12-25T17:31:28.267Z,51.10
2017-12-25T17:33:55.693Z,51.40
2017-12-25T17:36:23.127Z,51.30
2017-12-25T17:38:50.549Z,51.40
2017-12-25T17:41:18.744Z,51.50
2017-12-25T17:43:46.168Z,51.40
2017-12-25T17:46:13.635Z,51.40
2017-12-25T17:48:41.056Z,51.50
2017-12-25T17:51:08.499Z,51.80
2017-12-25T17:53:35.931Z,51.90
2017-12-25T17:56:03.349Z,51.80
2017-12-25T17:58:31.548Z,52.00
2017-12-25T18:00:58.963Z,51.90
2017-12-25T18:03:26.396Z,52.00
2017-12-25T18:05:53.825Z,52.10
2017-12-25T18:08:21.255Z,52.50
2017-12-25T18:10:49.444Z,52.70
2017-12-25T18:13:16.880Z,52.60
2017-12-25T18:15:44.295Z,52.80
2017-12-25T18:18:11.725Z,52.70
2017-12-25T18:20:39.199Z,52.70
2017-12-25T18:23:06.659Z,52.90
2017-12-25T18:25:34.092Z,52.70
2017-12-25T18:28:01.527Z,52.80
2017-12-25T18:30:28.963Z,52.80
2017-12-25T18:32:56.387Z,53.10
2017-12-25T18:35:23.824Z,53.00
2017-12-25T18:37:51.276Z,52.80
2017-12-25T18:40:18.699Z,52.60
2017-12-25T18:42:46.125Z,52.60
2017-12-25T18:45:13.560Z,52.70
2017-12-25T18:47:40.980Z,52.80
2017-12-25T18:50:08.412Z,52.70
2017-12-25T18:52:35.836Z,52.50
2017-12-25T18:55:03.272Z,52.80
2017-12-25T18:57:30.700Z,52.20
2017-12-25T18:59:58.179Z,53.00
2017-12-25T19:02:25.615Z,52.00
2017-12-25T19:04:53.027Z,51.90
2017-12-25T19:07:20.459Z,51.70
2017-12-25T19:09:47.880Z,51.80
2017-12-25T19:12:15.308Z,51.80
2017-12-25T19:14:42.722Z,52.00
2017-12-25T19:17:10.151Z,52.30
2017-12-25T19:19:37.571Z,52.40
2017-12-25T19:22:05.000Z,52.80
2017-12-25T19:24:32.431Z,53.20
2017-12-25T19:26:59.860Z,52.90
2017-12-25T19:29:28.051Z,53.20
2017-12-25T19:31:55.483Z,53.10
2017-12-25T19:34:22.909Z,53.20
2017-12-25T19:36:50.335Z,53.00
2017-12-25T19:39:17.755Z,52.90
2017-12-25T19:41:45.192Z,53.10
2017-12-25T19:44:12.607Z,53.60
2017-12-25T19:46:40.032Z,53.80
2017-12-25T19:49:07.468Z,53.60
2017-12-25T19:51:34.882Z,53.20
2017-12-25T19:54:02.321Z,52.90
2017-12-25T19:56:29.744Z,52.50
2017-12-25T19:58:57.176Z,52.70
2017-12-25T20:01:24.596Z,53.10
2017-12-25T20:03:52.044Z,53.50
2017-12-25T20:06:19.472Z,53.70
2017-12-25T20:08:46.908Z,53.90
2017-12-25T20:11:15.095Z,53.90
2017-12-25T20:13:42.524Z,53.90
2017-12-25T20:16:10.711Z,53.60
2017-12-25T20:18:38.144Z,53.50
2017-12-25T20:21:05.568Z,53.40
2017-12-25T20:23:33.026Z,53.30
2017-12-25T20:26:00.456Z,53.10
2017-12-25T20:28:27.880Z,53.30
2017-12-25T20:30:55.311Z,53.50
2017-12-25T20:33:22.741Z,53.40
2017-12-25T20:35:51.104Z,53.40
2017-12-25T20:38:18.528Z,53.40
2017-12-25T20:40:45.960Z,53.30
2017-12-25T20:43:13.377Z,53.50
2017-12-25T20:45:40.807Z,53.50
2017-12-25T20:48:08.232Z,53.60
2017-12-25T20:50:35.839Z,53.40
2017-12-25T20:53:03.255Z,53.40
2017-12-25T20:55:30.688Z,53.80
2017-12-25T20:57:58.113Z,54.10
2017-12-25T21:00:25.540Z,54.70
2017-12-25T21:02:52.955Z,55.30
2017-12-25T21:05:20.391Z,56.00
2017-12-25T21:07:47.811Z,57.10
2017-12-25T21:10:15.227Z,57.40
2017-12-25T21:12:42.660Z,58.50
2017-12-25T21:15:10.123Z,59.00
2017-12-25T21:17:37.524Z,59.50
2017-12-25T21:20:05.706Z,60.20
2017-12-25T21:22:33.135Z,60.30
2017-12-25T21:25:00.560Z,60.50
2017-12-25T21:27:27.991Z,60.70
2017-12-25T21:29:55.420Z,60.90
2017-12-25T21:32:22.844Z,61.00
2017-12-25T21:34:50.361Z,61.00
2017-12-25T21:37:17.803Z,61.30
2017-12-25T21:39:45.999Z,61.70
2017-12-25T21:42:13.460Z,61.60
2017-12-25T21:44:40.920Z,61.70
2017-12-25T21:47:08.311Z,61.80
2017-12-25T21:49:35.743Z,61.90
2017-12-25T21:52:03.159Z,62.40
2017-12-25T21:54:30.592Z,62.60
2017-12-25T21:56:58.011Z,62.80
2017-12-25T21:59:25.447Z,63.00
2017-12-25T22:01:52.867Z,62.90
2017-12-25T22:04:20.292Z,63.10
2017-12-25T22:06:47.721Z,63.20
2017-12-25T22:09:15.187Z,63.40
2017-12-25T22:11:42.579Z,63.40
2017-12-25T22:14:10.014Z,63.40
2017-12-25T22:16:37.445Z,63.60
2017-12-25T22:19:04.909Z,63.60
2017-12-25T22:21:32.327Z,63.80
2017-12-25T22:23:59.751Z,63.90
2017-12-25T22:26:27.184Z,63.90
2017-12-25T22:28:54.603Z,64.10
2017-12-25T22:31:22.039Z,64.50
2017-12-25T22:33:49.616Z,64.80
2017-12-25T22:36:17.045Z,64.90
2017-12-25T22:38:45.228Z,65.40
2017-12-25T22:41:12.654Z,65.20
2017-12-25T22:43:40.081Z,65.50
2017-12-25T22:46:07.521Z,65.80
2017-12-25T22:48:34.939Z,65.70
2017-12-25T22:51:02.368Z,65.50
2017-12-25T22:53:29.819Z,65.80
2017-12-25T22:55:57.253Z,65.70
2017-12-25T22:58:24.676Z,66.20
2017-12-25T23:00:52.096Z,66.20
2017-12-25T23:03:19.527Z,65.80
2017-12-25T23:05:46.947Z,65.70
2017-12-25T23:08:14.380Z,65.60
2017-12-25T23:10:41.799Z,65.70
2017-12-25T23:13:09.227Z,65.60
2017-12-25T23:15:36.716Z,65.30
2017-12-25T23:18:04.152Z,64.80
2017-12-25T23:20:31.581Z,64.40
2017-12-25T23:22:59.772Z,63.60
2017-12-25T23:25:27.193Z,63.60
2017-12-25T23:27:54.620Z,63.40
2017-12-25T23:30:22.043Z,63.00
2017-12-25T23:32:49.475Z,63.20
2017-12-25T23:35:17.658Z,63.40
2017-12-25T23:37:45.080Z,63.30
2017-12-25T23:40:13.279Z,63.70
2017-12-25T23:42:40.695Z,63.60
2017-12-25T23:45:08.128Z,63.70
2017-12-25T23:47:35.551Z,63.50
2017-12-25T23:50:02.988Z,63.20
2017-12-25T23:52:30.412Z,63.70
2017-12-25T23:54:57.843Z,64.00
2017-12-25T23:57:25.259Z,64.40
2017-12-25T23:59:53.463Z,64.70
